sensor_id;sensor_type;location;lat;lon;timestamp;P1;durP1;ratioP1;P2;durP2;ratioP2
6376;SDS011;3221;48.858;10.128;2023-03-01T00:01:22;25.00;;;16.27;;
6376;SDS011;3221;48.858;10.128;2023-03-01T00:03:51;23.50;;;16.10;;
6376;SDS011;3221;48.858;10.128;2023-03-01T00:06:19;23.60;;;15.93;;
6376;SDS011;3221;48.858;10.128;2023-03-01T00:08:46;28.30;;;17.47;;
6376;SDS011;3221;48.858;10.128;2023-03-01T00:11:14;26.40;;;17.50;;
6376;SDS011;3221;48.858;10.128;2023-03-01T00:13:44;23.40;;;16.63;;
6376;SDS011;3221;48.858;10.128;2023-03-01T00:16:14;30.03;;;20.50;;
6376;SDS011;3221;48.858;10.128;2023-03-01T00:18:49;25.67;;;17.57;;
6376;SDS011;3221;48.858;10.128;2023-03-01T00:21:17;26.73;;;17.13;;
6376;SDS011;3221;48.858;10.128;2023-03-01T00:23:43;25.47;;;16.57;;
6376;SDS011;3221;48.858;10.128;2023-03-01T00:26:12;25.33;;;17.50;;
6376;SDS011;3221;48.858;10.128;2023-03-01T00:28:40;25.83;;;17.00;;
6376;SDS011;3221;48.858;10.128;2023-03-01T00:31:09;25.40;;;16.47;;
6376;SDS011;3221;48.858;10.128;2023-03-01T00:33:38;25.60;;;15.80;;
6376;SDS011;3221;48.858;10.128;2023-03-01T00:36:05;24.00;;;15.97;;
6376;SDS011;3221;48.858;10.128;2023-03-01T00:38:39;25.87;;;18.03;;
6376;SDS011;3221;48.858;10.128;2023-03-01T00:41:09;29.07;;;18.40;;
6376;SDS011;3221;48.858;10.128;2023-03-01T00:43:37;25.13;;;17.90;;
6376;SDS011;3221;48.858;10.128;2023-03-01T00:46:06;28.13;;;19.53;;
6376;SDS011;3221;48.858;10.128;2023-03-01T00:48:34;25.33;;;17.77;;
6376;SDS011;3221;48.858;10.128;2023-03-01T00:51:09;24.67;;;16.67;;
6376;SDS011;3221;48.858;10.128;2023-03-01T00:53:44;23.87;;;15.93;;
6376;SDS011;3221;48.858;10.128;2023-03-01T00:56:13;26.20;;;17.17;;
6376;SDS011;3221;48.858;10.128;2023-03-01T00:58:42;27.33;;;17.10;;
6376;SDS011;3221;48.858;10.128;2023-03-01T01:01:10;26.70;;;17.87;;
6376;SDS011;3221;48.858;10.128;2023-03-01T01:04:07;23.67;;;16.70;;
6376;SDS011;3221;48.858;10.128;2023-03-01T01:06:37;25.17;;;16.80;;
6376;SDS011;3221;48.858;10.128;2023-03-01T01:09:12;26.57;;;17.57;;
6376;SDS011;3221;48.858;10.128;2023-03-01T01:11:47;25.73;;;17.30;;
6376;SDS011;3221;48.858;10.128;2023-03-01T01:14:16;24.70;;;16.17;;
6376;SDS011;3221;48.858;10.128;2023-03-01T01:16:44;25.90;;;17.07;;
6376;SDS011;3221;48.858;10.128;2023-03-01T01:19:11;24.33;;;16.47;;
6376;SDS011;3221;48.858;10.128;2023-03-01T01:21:39;25.43;;;17.13;;
6376;SDS011;3221;48.858;10.128;2023-03-01T01:24:09;27.07;;;16.70;;
6376;SDS011;3221;48.858;10.128;2023-03-01T01:26:36;26.87;;;17.23;;
6376;SDS011;3221;48.858;10.128;2023-03-01T01:29:03;23.40;;;16.27;;
6376;SDS011;3221;48.858;10.128;2023-03-01T01:31:31;25.10;;;16.90;;
6376;SDS011;3221;48.858;10.128;2023-03-01T01:33:59;28.20;;;17.67;;
6376;SDS011;3221;48.858;10.128;2023-03-01T01:36:27;26.13;;;17.33;;
6376;SDS011;3221;48.858;10.128;2023-03-01T01:38:55;25.87;;;16.63;;
6376;SDS011;3221;48.858;10.128;2023-03-01T01:41:22;26.80;;;17.83;;
6376;SDS011;3221;48.858;10.128;2023-03-01T01:51:45;27.07;;;17.43;;
6376;SDS011;3221;48.858;10.128;2023-03-01T01:54:22;25.87;;;17.33;;
6376;SDS011;3221;48.858;10.128;2023-03-01T01:56:55;27.43;;;17.83;;
6376;SDS011;3221;48.858;10.128;2023-03-01T01:59:26;27.43;;;17.73;;
6376;SDS011;3221;48.858;10.128;2023-03-01T02:01:56;25.60;;;17.10;;
6376;SDS011;3221;48.858;10.128;2023-03-01T02:04:27;28.47;;;17.60;;
6376;SDS011;3221;48.858;10.128;2023-03-01T02:06:58;29.17;;;18.90;;
6376;SDS011;3221;48.858;10.128;2023-03-01T02:09:30;30.03;;;18.70;;
6376;SDS011;3221;48.858;10.128;2023-03-01T02:12:00;27.70;;;17.23;;
6376;SDS011;3221;48.858;10.128;2023-03-01T02:14:28;27.50;;;17.87;;
6376;SDS011;3221;48.858;10.128;2023-03-01T02:16:54;27.30;;;17.43;;
6376;SDS011;3221;48.858;10.128;2023-03-01T02:19:35;25.57;;;17.20;;
6376;SDS011;3221;48.858;10.128;2023-03-01T02:22:51;25.37;;;16.77;;
6376;SDS011;3221;48.858;10.128;2023-03-01T02:25:08;30.03;;;18.03;;
6376;SDS011;3221;48.858;10.128;2023-03-01T02:30:30;28.43;;;17.47;;
6376;SDS011;3221;48.858;10.128;2023-03-01T02:32:58;25.50;;;17.27;;
6376;SDS011;3221;48.858;10.128;2023-03-01T02:35:33;26.07;;;17.50;;
6376;SDS011;3221;48.858;10.128;2023-03-01T02:38:03;26.53;;;17.47;;
6376;SDS011;3221;48.858;10.128;2023-03-01T02:40:34;26.77;;;16.97;;
6376;SDS011;3221;48.858;10.128;2023-03-01T02:43:04;25.80;;;16.73;;
6376;SDS011;3221;48.858;10.128;2023-03-01T02:45:35;26.67;;;17.07;;
6376;SDS011;3221;48.858;10.128;2023-03-01T02:48:02;26.13;;;17.17;;
6376;SDS011;3221;48.858;10.128;2023-03-01T02:52:57;26.90;;;18.33;;
6376;SDS011;3221;48.858;10.128;2023-03-01T02:55:28;25.17;;;17.20;;
6376;SDS011;3221;48.858;10.128;2023-03-01T02:57:56;26.33;;;17.60;;
6376;SDS011;3221;48.858;10.128;2023-03-01T03:00:24;28.07;;;18.07;;
6376;SDS011;3221;48.858;10.128;2023-03-01T03:02:56;27.30;;;17.97;;
6376;SDS011;3221;48.858;10.128;2023-03-01T03:05:25;26.23;;;17.73;;
6376;SDS011;3221;48.858;10.128;2023-03-01T03:07:56;27.10;;;17.97;;
6376;SDS011;3221;48.858;10.128;2023-03-01T03:10:29;25.77;;;16.73;;
6376;SDS011;3221;48.858;10.128;2023-03-01T03:12:59;28.93;;;18.33;;
6376;SDS011;3221;48.858;10.128;2023-03-01T03:15:29;29.27;;;18.50;;
6376;SDS011;3221;48.858;10.128;2023-03-01T03:17:57;29.47;;;18.13;;
6376;SDS011;3221;48.858;10.128;2023-03-01T03:20:26;27.57;;;18.17;;
6376;SDS011;3221;48.858;10.128;2023-03-01T03:22:54;27.80;;;18.57;;
6376;SDS011;3221;48.858;10.128;2023-03-01T03:25:22;29.17;;;18.17;;
6376;SDS011;3221;48.858;10.128;2023-03-01T03:27:51;29.07;;;19.13;;
6376;SDS011;3221;48.858;10.128;2023-03-01T03:30:26;28.27;;;18.07;;
6376;SDS011;3221;48.858;10.128;2023-03-01T03:32:55;28.73;;;17.93;;
6376;SDS011;3221;48.858;10.128;2023-03-01T03:35:30;28.40;;;18.37;;
6376;SDS011;3221;48.858;10.128;2023-03-01T03:37:59;27.43;;;18.97;;
6376;SDS011;3221;48.858;10.128;2023-03-01T03:40:35;27.87;;;17.17;;
6376;SDS011;3221;48.858;10.128;2023-03-01T03:43:04;28.20;;;18.53;;
6376;SDS011;3221;48.858;10.128;2023-03-01T03:45:36;30.93;;;18.70;;
6376;SDS011;3221;48.858;10.128;2023-03-01T03:48:03;29.70;;;19.07;;
6376;SDS011;3221;48.858;10.128;2023-03-01T03:50:32;27.00;;;17.47;;
6376;SDS011;3221;48.858;10.128;2023-03-01T03:53:03;29.17;;;19.07;;
6376;SDS011;3221;48.858;10.128;2023-03-01T03:55:31;26.83;;;17.50;;
6376;SDS011;3221;48.858;10.128;2023-03-01T03:58:00;26.90;;;17.30;;
6376;SDS011;3221;48.858;10.128;2023-03-01T04:00:34;30.43;;;18.67;;
6376;SDS011;3221;48.858;10.128;2023-03-01T04:03:04;27.93;;;17.67;;
6376;SDS011;3221;48.858;10.128;2023-03-01T04:05:31;30.20;;;19.13;;
6376;SDS011;3221;48.858;10.128;2023-03-01T04:07:58;27.63;;;18.17;;
6376;SDS011;3221;48.858;10.128;2023-03-01T04:10:37;27.07;;;18.73;;
6376;SDS011;3221;48.858;10.128;2023-03-01T04:13:07;28.13;;;18.17;;
6376;SDS011;3221;48.858;10.128;2023-03-01T04:15:36;30.80;;;19.17;;
6376;SDS011;3221;48.858;10.128;2023-03-01T04:18:03;26.73;;;18.40;;
6376;SDS011;3221;48.858;10.128;2023-03-01T04:20:32;27.60;;;18.00;;
6376;SDS011;3221;48.858;10.128;2023-03-01T04:23:02;29.17;;;18.10;;
6376;SDS011;3221;48.858;10.128;2023-03-01T04:25:46;27.03;;;18.30;;
6376;SDS011;3221;48.858;10.128;2023-03-01T04:30:53;29.80;;;18.70;;
6376;SDS011;3221;48.858;10.128;2023-03-01T04:33:21;27.03;;;17.90;;
6376;SDS011;3221;48.858;10.128;2023-03-01T04:35:48;27.90;;;18.33;;
6376;SDS011;3221;48.858;10.128;2023-03-01T04:38:17;27.97;;;18.00;;
6376;SDS011;3221;48.858;10.128;2023-03-01T04:40:45;27.87;;;18.30;;
6376;SDS011;3221;48.858;10.128;2023-03-01T04:43:12;29.63;;;18.80;;
6376;SDS011;3221;48.858;10.128;2023-03-01T04:45:40;28.23;;;18.40;;
6376;SDS011;3221;48.858;10.128;2023-03-01T04:48:07;28.43;;;18.13;;
6376;SDS011;3221;48.858;10.128;2023-03-01T04:50:34;28.37;;;18.13;;
6376;SDS011;3221;48.858;10.128;2023-03-01T04:53:01;26.83;;;18.10;;
6376;SDS011;3221;48.858;10.128;2023-03-01T04:55:28;28.03;;;17.53;;
6376;SDS011;3221;48.858;10.128;2023-03-01T04:57:55;26.63;;;18.70;;
6376;SDS011;3221;48.858;10.128;2023-03-01T05:00:22;26.73;;;17.73;;
6376;SDS011;3221;48.858;10.128;2023-03-01T05:02:51;30.50;;;18.07;;
6376;SDS011;3221;48.858;10.128;2023-03-01T05:05:27;30.50;;;18.87;;
6376;SDS011;3221;48.858;10.128;2023-03-01T05:07:58;28.13;;;18.53;;
6376;SDS011;3221;48.858;10.128;2023-03-01T05:10:28;27.47;;;17.70;;
6376;SDS011;3221;48.858;10.128;2023-03-01T05:12:56;27.87;;;18.40;;
6376;SDS011;3221;48.858;10.128;2023-03-01T05:15:24;28.50;;;18.50;;
6376;SDS011;3221;48.858;10.128;2023-03-01T05:17:54;27.53;;;18.60;;
6376;SDS011;3221;48.858;10.128;2023-03-01T05:20:25;28.73;;;18.27;;
6376;SDS011;3221;48.858;10.128;2023-03-01T05:22:55;29.37;;;18.73;;
6376;SDS011;3221;48.858;10.128;2023-03-01T05:25:25;28.83;;;18.80;;
6376;SDS011;3221;48.858;10.128;2023-03-01T05:27:52;27.50;;;17.60;;
6376;SDS011;3221;48.858;10.128;2023-03-01T05:30:19;28.03;;;18.37;;
6376;SDS011;3221;48.858;10.128;2023-03-01T05:32:47;29.07;;;18.40;;
6376;SDS011;3221;48.858;10.128;2023-03-01T05:35:16;28.77;;;18.33;;
6376;SDS011;3221;48.858;10.128;2023-03-01T05:37:44;29.00;;;18.33;;
6376;SDS011;3221;48.858;10.128;2023-03-01T05:40:17;29.20;;;18.33;;
6376;SDS011;3221;48.858;10.128;2023-03-01T05:42:53;27.80;;;18.87;;
6376;SDS011;3221;48.858;10.128;2023-03-01T05:45:22;27.93;;;17.97;;
6376;SDS011;3221;48.858;10.128;2023-03-01T05:47:50;29.93;;;19.97;;
6376;SDS011;3221;48.858;10.128;2023-03-01T05:50:18;28.87;;;17.90;;
6376;SDS011;3221;48.858;10.128;2023-03-01T05:52:48;28.10;;;17.90;;
6376;SDS011;3221;48.858;10.128;2023-03-01T05:55:22;27.93;;;18.10;;
6376;SDS011;3221;48.858;10.128;2023-03-01T05:57:49;29.00;;;18.80;;
6376;SDS011;3221;48.858;10.128;2023-03-01T06:00:18;28.50;;;19.17;;
6376;SDS011;3221;48.858;10.128;2023-03-01T06:02:48;28.67;;;18.63;;
6376;SDS011;3221;48.858;10.128;2023-03-01T06:05:15;27.10;;;18.23;;
6376;SDS011;3221;48.858;10.128;2023-03-01T06:07:42;28.57;;;18.80;;
6376;SDS011;3221;48.858;10.128;2023-03-01T06:10:09;28.40;;;19.00;;
6376;SDS011;3221;48.858;10.128;2023-03-01T06:12:38;29.67;;;18.57;;
6376;SDS011;3221;48.858;10.128;2023-03-01T06:15:06;29.10;;;18.67;;
6376;SDS011;3221;48.858;10.128;2023-03-01T06:17:36;30.57;;;19.80;;
6376;SDS011;3221;48.858;10.128;2023-03-01T06:20:08;29.37;;;18.97;;
6376;SDS011;3221;48.858;10.128;2023-03-01T06:22:37;29.40;;;18.87;;
6376;SDS011;3221;48.858;10.128;2023-03-01T06:25:04;29.33;;;19.47;;
6376;SDS011;3221;48.858;10.128;2023-03-01T06:27:32;29.83;;;18.60;;
6376;SDS011;3221;48.858;10.128;2023-03-01T06:29:58;27.60;;;17.70;;
6376;SDS011;3221;48.858;10.128;2023-03-01T06:32:25;28.67;;;18.83;;
6376;SDS011;3221;48.858;10.128;2023-03-01T06:34:52;31.57;;;19.27;;
6376;SDS011;3221;48.858;10.128;2023-03-01T06:37:19;31.93;;;18.50;;
6376;SDS011;3221;48.858;10.128;2023-03-01T06:39:46;29.53;;;18.03;;
6376;SDS011;3221;48.858;10.128;2023-03-01T06:42:13;28.87;;;17.43;;
6376;SDS011;3221;48.858;10.128;2023-03-01T06:44:40;31.63;;;19.20;;
6376;SDS011;3221;48.858;10.128;2023-03-01T06:47:06;32.13;;;19.33;;
6376;SDS011;3221;48.858;10.128;2023-03-01T06:49:33;29.43;;;18.30;;
6376;SDS011;3221;48.858;10.128;2023-03-01T06:52:00;31.13;;;19.63;;
6376;SDS011;3221;48.858;10.128;2023-03-01T06:54:27;28.80;;;18.83;;
6376;SDS011;3221;48.858;10.128;2023-03-01T06:56:53;29.83;;;19.37;;
6376;SDS011;3221;48.858;10.128;2023-03-01T06:59:20;28.83;;;19.40;;
6376;SDS011;3221;48.858;10.128;2023-03-01T07:01:47;28.87;;;19.23;;
6376;SDS011;3221;48.858;10.128;2023-03-01T07:04:14;28.53;;;18.23;;
6376;SDS011;3221;48.858;10.128;2023-03-01T07:06:40;28.37;;;18.23;;
6376;SDS011;3221;48.858;10.128;2023-03-01T07:09:07;28.80;;;18.43;;
6376;SDS011;3221;48.858;10.128;2023-03-01T07:11:34;30.53;;;18.90;;
6376;SDS011;3221;48.858;10.128;2023-03-01T07:14:01;28.30;;;17.83;;
6376;SDS011;3221;48.858;10.128;2023-03-01T07:16:28;31.17;;;18.50;;
6376;SDS011;3221;48.858;10.128;2023-03-01T07:18:55;28.53;;;18.97;;
6376;SDS011;3221;48.858;10.128;2023-03-01T07:21:24;29.47;;;18.27;;
6376;SDS011;3221;48.858;10.128;2023-03-01T07:23:51;31.63;;;18.50;;
6376;SDS011;3221;48.858;10.128;2023-03-01T07:26:18;27.87;;;18.17;;
6376;SDS011;3221;48.858;10.128;2023-03-01T07:28:45;27.00;;;17.17;;
6376;SDS011;3221;48.858;10.128;2023-03-01T07:31:12;31.93;;;19.83;;
6376;SDS011;3221;48.858;10.128;2023-03-01T07:33:38;27.90;;;17.73;;
6376;SDS011;3221;48.858;10.128;2023-03-01T07:36:06;30.37;;;18.30;;
6376;SDS011;3221;48.858;10.128;2023-03-01T07:38:33;29.23;;;18.37;;
6376;SDS011;3221;48.858;10.128;2023-03-01T07:41:00;29.37;;;17.90;;
6376;SDS011;3221;48.858;10.128;2023-03-01T07:43:30;27.90;;;18.10;;
6376;SDS011;3221;48.858;10.128;2023-03-01T07:46:00;27.50;;;18.33;;
6376;SDS011;3221;48.858;10.128;2023-03-01T07:48:28;30.03;;;18.40;;
6376;SDS011;3221;48.858;10.128;2023-03-01T07:50:59;30.47;;;18.90;;
6376;SDS011;3221;48.858;10.128;2023-03-01T07:53:27;31.00;;;18.30;;
6376;SDS011;3221;48.858;10.128;2023-03-01T07:56:03;26.97;;;18.20;;
6376;SDS011;3221;48.858;10.128;2023-03-01T07:58:36;31.47;;;19.37;;
6376;SDS011;3221;48.858;10.128;2023-03-01T08:01:08;29.47;;;17.93;;
6376;SDS011;3221;48.858;10.128;2023-03-01T08:03:38;29.40;;;17.10;;
6376;SDS011;3221;48.858;10.128;2023-03-01T08:06:06;27.17;;;18.17;;
6376;SDS011;3221;48.858;10.128;2023-03-01T08:08:34;30.17;;;18.80;;
6376;SDS011;3221;48.858;10.128;2023-03-01T08:11:03;30.87;;;18.87;;
6376;SDS011;3221;48.858;10.128;2023-03-01T08:13:31;29.40;;;18.40;;
6376;SDS011;3221;48.858;10.128;2023-03-01T08:16:02;27.23;;;17.80;;
6376;SDS011;3221;48.858;10.128;2023-03-01T08:18:30;29.30;;;18.40;;
6376;SDS011;3221;48.858;10.128;2023-03-01T08:21:01;29.83;;;18.40;;
6376;SDS011;3221;48.858;10.128;2023-03-01T08:23:33;28.83;;;18.43;;
6376;SDS011;3221;48.858;10.128;2023-03-01T08:26:07;28.13;;;18.53;;
6376;SDS011;3221;48.858;10.128;2023-03-01T08:28:42;29.50;;;18.53;;
6376;SDS011;3221;48.858;10.128;2023-03-01T08:31:20;27.20;;;17.53;;
6376;SDS011;3221;48.858;10.128;2023-03-01T08:33:54;30.27;;;19.23;;
6376;SDS011;3221;48.858;10.128;2023-03-01T08:36:24;28.40;;;17.90;;
6376;SDS011;3221;48.858;10.128;2023-03-01T08:38:52;29.60;;;18.03;;
6376;SDS011;3221;48.858;10.128;2023-03-01T08:41:20;29.57;;;18.83;;
6376;SDS011;3221;48.858;10.128;2023-03-01T08:43:47;28.53;;;17.87;;
6376;SDS011;3221;48.858;10.128;2023-03-01T08:46:14;29.53;;;18.00;;
6376;SDS011;3221;48.858;10.128;2023-03-01T08:48:41;35.43;;;18.20;;
6376;SDS011;3221;48.858;10.128;2023-03-01T08:51:13;30.20;;;18.00;;
6376;SDS011;3221;48.858;10.128;2023-03-01T08:53:42;27.33;;;17.90;;
6376;SDS011;3221;48.858;10.128;2023-03-01T08:56:09;32.77;;;18.87;;
6376;SDS011;3221;48.858;10.128;2023-03-01T08:58:37;28.87;;;18.33;;
6376;SDS011;3221;48.858;10.128;2023-03-01T09:01:09;26.77;;;16.43;;
6376;SDS011;3221;48.858;10.128;2023-03-01T09:03:37;30.90;;;18.10;;
6376;SDS011;3221;48.858;10.128;2023-03-01T09:06:04;27.23;;;17.23;;
6376;SDS011;3221;48.858;10.128;2023-03-01T09:08:40;29.60;;;17.37;;
6376;SDS011;3221;48.858;10.128;2023-03-01T09:11:09;28.07;;;18.13;;
6376;SDS011;3221;48.858;10.128;2023-03-01T09:13:37;26.13;;;17.43;;
6376;SDS011;3221;48.858;10.128;2023-03-01T09:16:07;28.27;;;17.83;;
6376;SDS011;3221;48.858;10.128;2023-03-01T09:18:34;27.80;;;17.30;;
6376;SDS011;3221;48.858;10.128;2023-03-01T09:21:06;27.43;;;17.10;;
6376;SDS011;3221;48.858;10.128;2023-03-01T09:23:45;27.10;;;17.37;;
6376;SDS011;3221;48.858;10.128;2023-03-01T09:26:17;27.80;;;17.60;;
6376;SDS011;3221;48.858;10.128;2023-03-01T09:28:48;29.53;;;16.87;;
6376;SDS011;3221;48.858;10.128;2023-03-01T09:31:16;28.57;;;17.20;;
6376;SDS011;3221;48.858;10.128;2023-03-01T09:33:46;26.73;;;17.60;;
6376;SDS011;3221;48.858;10.128;2023-03-01T09:36:16;26.93;;;18.10;;
6376;SDS011;3221;48.858;10.128;2023-03-01T09:38:45;27.00;;;16.77;;
6376;SDS011;3221;48.858;10.128;2023-03-01T09:41:22;27.37;;;17.40;;
6376;SDS011;3221;48.858;10.128;2023-03-01T09:44:20;25.67;;;17.00;;
6376;SDS011;3221;48.858;10.128;2023-03-01T09:46:54;30.37;;;16.97;;
6376;SDS011;3221;48.858;10.128;2023-03-01T09:49:35;26.00;;;16.83;;
6376;SDS011;3221;48.858;10.128;2023-03-01T09:55:04;27.17;;;16.80;;
6376;SDS011;3221;48.858;10.128;2023-03-01T09:57:55;24.53;;;15.90;;
6376;SDS011;3221;48.858;10.128;2023-03-01T10:00:47;28.07;;;16.80;;
6376;SDS011;3221;48.858;10.128;2023-03-01T10:06:04;28.13;;;17.17;;
6376;SDS011;3221;48.858;10.128;2023-03-01T10:09:16;24.93;;;16.87;;
6376;SDS011;3221;48.858;10.128;2023-03-01T10:11:48;24.23;;;15.87;;
6376;SDS011;3221;48.858;10.128;2023-03-01T10:20:10;26.53;;;17.07;;
6376;SDS011;3221;48.858;10.128;2023-03-01T10:22:39;29.83;;;16.67;;
6376;SDS011;3221;48.858;10.128;2023-03-01T10:25:08;24.50;;;16.70;;
6376;SDS011;3221;48.858;10.128;2023-03-01T10:27:44;22.93;;;15.10;;
6376;SDS011;3221;48.858;10.128;2023-03-01T10:30:20;26.53;;;16.67;;
6376;SDS011;3221;48.858;10.128;2023-03-01T10:33:10;27.00;;;16.43;;
6376;SDS011;3221;48.858;10.128;2023-03-01T10:35:43;24.10;;;16.37;;
6376;SDS011;3221;48.858;10.128;2023-03-01T10:38:11;27.00;;;16.80;;
6376;SDS011;3221;48.858;10.128;2023-03-01T10:40:55;27.10;;;17.17;;
6376;SDS011;3221;48.858;10.128;2023-03-01T10:43:24;26.33;;;16.73;;
6376;SDS011;3221;48.858;10.128;2023-03-01T10:45:53;25.43;;;16.40;;
6376;SDS011;3221;48.858;10.128;2023-03-01T10:48:21;24.23;;;15.40;;
6376;SDS011;3221;48.858;10.128;2023-03-01T10:53:32;26.47;;;15.50;;
6376;SDS011;3221;48.858;10.128;2023-03-01T10:56:14;27.57;;;16.33;;
6376;SDS011;3221;48.858;10.128;2023-03-01T10:59:19;25.10;;;15.10;;
6376;SDS011;3221;48.858;10.128;2023-03-01T11:01:45;23.07;;;15.40;;
6376;SDS011;3221;48.858;10.128;2023-03-01T11:04:12;22.10;;;13.87;;
6376;SDS011;3221;48.858;10.128;2023-03-01T11:06:41;22.97;;;13.93;;
6376;SDS011;3221;48.858;10.128;2023-03-01T11:09:18;23.70;;;13.87;;
6376;SDS011;3221;48.858;10.128;2023-03-01T11:11:57;21.77;;;13.80;;
6376;SDS011;3221;48.858;10.128;2023-03-01T11:14:26;20.70;;;12.97;;
6376;SDS011;3221;48.858;10.128;2023-03-01T11:23:21;20.97;;;12.53;;
6376;SDS011;3221;48.858;10.128;2023-03-01T11:25:33;21.57;;;13.33;;
6376;SDS011;3221;48.858;10.128;2023-03-01T11:28:04;24.77;;;13.90;;
6376;SDS011;3221;48.858;10.128;2023-03-01T11:30:35;25.00;;;13.17;;
6376;SDS011;3221;48.858;10.128;2023-03-01T11:36:10;21.00;;;13.07;;
6376;SDS011;3221;48.858;10.128;2023-03-01T11:39:09;22.93;;;13.13;;
6376;SDS011;3221;48.858;10.128;2023-03-01T11:41:48;21.00;;;13.33;;
6376;SDS011;3221;48.858;10.128;2023-03-01T11:44:25;20.80;;;12.53;;
6376;SDS011;3221;48.858;10.128;2023-03-01T11:47:09;21.30;;;12.90;;
6376;SDS011;3221;48.858;10.128;2023-03-01T12:03:23;25.50;;;14.60;;
6376;SDS011;3221;48.858;10.128;2023-03-01T12:09:06;25.27;;;15.80;;
6376;SDS011;3221;48.858;10.128;2023-03-01T12:14:34;23.60;;;14.83;;
6376;SDS011;3221;48.858;10.128;2023-03-01T12:40:29;24.73;;;15.43;;
6376;SDS011;3221;48.858;10.128;2023-03-01T12:45:55;28.27;;;17.20;;
6376;SDS011;3221;48.858;10.128;2023-03-01T12:48:47;25.63;;;15.20;;
6376;SDS011;3221;48.858;10.128;2023-03-01T12:51:30;23.00;;;14.40;;
6376;SDS011;3221;48.858;10.128;2023-03-01T12:53:59;25.70;;;16.73;;
6376;SDS011;3221;48.858;10.128;2023-03-01T12:56:34;24.27;;;16.13;;
6376;SDS011;3221;48.858;10.128;2023-03-01T12:59:12;24.17;;;15.27;;
6376;SDS011;3221;48.858;10.128;2023-03-01T13:07:15;24.63;;;15.87;;
6376;SDS011;3221;48.858;10.128;2023-03-01T13:10:26;23.60;;;15.93;;
6376;SDS011;3221;48.858;10.128;2023-03-01T13:13:08;24.93;;;14.80;;
6376;SDS011;3221;48.858;10.128;2023-03-01T13:15:50;21.93;;;14.17;;
6376;SDS011;3221;48.858;10.128;2023-03-01T13:20:55;21.93;;;13.83;;
6376;SDS011;3221;48.858;10.128;2023-03-01T13:23:24;22.13;;;14.30;;
6376;SDS011;3221;48.858;10.128;2023-03-01T13:33:48;24.03;;;14.70;;
6376;SDS011;3221;48.858;10.128;2023-03-01T13:38:57;21.10;;;14.17;;
6376;SDS011;3221;48.858;10.128;2023-03-01T13:49:47;22.90;;;14.03;;
6376;SDS011;3221;48.858;10.128;2023-03-01T13:57:51;20.57;;;14.17;;
6376;SDS011;3221;48.858;10.128;2023-03-01T14:03:14;20.97;;;13.60;;
6376;SDS011;3221;48.858;10.128;2023-03-01T14:05:56;21.57;;;13.63;;
6376;SDS011;3221;48.858;10.128;2023-03-01T14:08:39;25.77;;;16.47;;
6376;SDS011;3221;48.858;10.128;2023-03-01T14:16:38;22.03;;;15.20;;
6376;SDS011;3221;48.858;10.128;2023-03-01T14:19:24;24.73;;;14.47;;
6376;SDS011;3221;48.858;10.128;2023-03-01T14:24:48;21.47;;;13.47;;
6376;SDS011;3221;48.858;10.128;2023-03-01T14:27:20;21.97;;;13.77;;
6376;SDS011;3221;48.858;10.128;2023-03-01T14:29:59;22.23;;;14.77;;
6376;SDS011;3221;48.858;10.128;2023-03-01T14:32:29;21.10;;;14.73;;
6376;SDS011;3221;48.858;10.128;2023-03-01T14:34:59;21.37;;;13.70;;
6376;SDS011;3221;48.858;10.128;2023-03-01T14:37:28;21.67;;;14.00;;
6376;SDS011;3221;48.858;10.128;2023-03-01T14:39:55;21.20;;;13.43;;
6376;SDS011;3221;48.858;10.128;2023-03-01T14:42:24;20.40;;;13.80;;
6376;SDS011;3221;48.858;10.128;2023-03-01T14:45:01;23.13;;;14.10;;
6376;SDS011;3221;48.858;10.128;2023-03-01T14:47:31;20.27;;;13.47;;
6376;SDS011;3221;48.858;10.128;2023-03-01T14:52:45;21.87;;;14.23;;
6376;SDS011;3221;48.858;10.128;2023-03-01T14:55:18;27.73;;;14.17;;
6376;SDS011;3221;48.858;10.128;2023-03-01T14:57:53;27.17;;;14.47;;
6376;SDS011;3221;48.858;10.128;2023-03-01T15:00:21;36.43;;;15.17;;
6376;SDS011;3221;48.858;10.128;2023-03-01T15:02:51;424.73;;;43.87;;
6376;SDS011;3221;48.858;10.128;2023-03-01T15:05:22;285.93;;;30.43;;
6376;SDS011;3221;48.858;10.128;2023-03-01T15:07:58;432.07;;;40.70;;
6376;SDS011;3221;48.858;10.128;2023-03-01T15:10:32;680.93;;;56.07;;
6376;SDS011;3221;48.858;10.128;2023-03-01T15:13:14;87.07;;;18.97;;
6376;SDS011;3221;48.858;10.128;2023-03-01T15:15:49;270.10;;;29.73;;
6376;SDS011;3221;48.858;10.128;2023-03-01T15:18:26;48.83;;;15.63;;
6376;SDS011;3221;48.858;10.128;2023-03-01T15:20:54;28.00;;;13.83;;
6376;SDS011;3221;48.858;10.128;2023-03-01T15:23:31;30.50;;;13.57;;
6376;SDS011;3221;48.858;10.128;2023-03-01T15:25:58;23.10;;;13.97;;
6376;SDS011;3221;48.858;10.128;2023-03-01T15:28:42;21.97;;;13.97;;
6376;SDS011;3221;48.858;10.128;2023-03-01T15:31:28;20.73;;;14.10;;
6376;SDS011;3221;48.858;10.128;2023-03-01T15:34:19;20.70;;;13.73;;
6376;SDS011;3221;48.858;10.128;2023-03-01T15:36:48;21.30;;;13.60;;
6376;SDS011;3221;48.858;10.128;2023-03-01T15:39:27;21.23;;;13.60;;
6376;SDS011;3221;48.858;10.128;2023-03-01T15:41:56;21.27;;;13.87;;
6376;SDS011;3221;48.858;10.128;2023-03-01T15:44:27;19.73;;;13.13;;
6376;SDS011;3221;48.858;10.128;2023-03-01T15:47:21;23.80;;;13.43;;
6376;SDS011;3221;48.858;10.128;2023-03-01T15:49:54;21.20;;;14.27;;
6376;SDS011;3221;48.858;10.128;2023-03-01T15:52:26;29.13;;;13.93;;
6376;SDS011;3221;48.858;10.128;2023-03-01T15:54:59;38.00;;;14.33;;
6376;SDS011;3221;48.858;10.128;2023-03-01T15:57:28;21.30;;;13.90;;
6376;SDS011;3221;48.858;10.128;2023-03-01T15:59:55;26.33;;;13.67;;
6376;SDS011;3221;48.858;10.128;2023-03-01T16:02:22;20.13;;;13.27;;
6376;SDS011;3221;48.858;10.128;2023-03-01T16:04:50;25.73;;;13.07;;
6376;SDS011;3221;48.858;10.128;2023-03-01T16:07:17;20.77;;;13.47;;
6376;SDS011;3221;48.858;10.128;2023-03-01T16:09:44;22.53;;;13.10;;
6376;SDS011;3221;48.858;10.128;2023-03-01T16:12:14;21.47;;;12.77;;
6376;SDS011;3221;48.858;10.128;2023-03-01T16:14:42;20.17;;;13.20;;
6376;SDS011;3221;48.858;10.128;2023-03-01T16:17:09;20.40;;;13.33;;
6376;SDS011;3221;48.858;10.128;2023-03-01T16:19:37;21.63;;;13.03;;
6376;SDS011;3221;48.858;10.128;2023-03-01T16:22:04;19.60;;;12.87;;
6376;SDS011;3221;48.858;10.128;2023-03-01T16:24:31;19.47;;;13.03;;
6376;SDS011;3221;48.858;10.128;2023-03-01T16:26:58;20.10;;;13.77;;
6376;SDS011;3221;48.858;10.128;2023-03-01T16:29:25;22.23;;;13.53;;
6376;SDS011;3221;48.858;10.128;2023-03-01T16:31:52;22.93;;;13.97;;
6376;SDS011;3221;48.858;10.128;2023-03-01T16:34:20;23.23;;;14.13;;
6376;SDS011;3221;48.858;10.128;2023-03-01T16:36:47;22.20;;;14.27;;
6376;SDS011;3221;48.858;10.128;2023-03-01T16:39:15;26.87;;;14.37;;
6376;SDS011;3221;48.858;10.128;2023-03-01T16:41:42;21.70;;;14.23;;
6376;SDS011;3221;48.858;10.128;2023-03-01T16:44:09;23.77;;;14.60;;
6376;SDS011;3221;48.858;10.128;2023-03-01T16:46:36;19.80;;;14.33;;
6376;SDS011;3221;48.858;10.128;2023-03-01T16:49:03;22.83;;;14.37;;
6376;SDS011;3221;48.858;10.128;2023-03-01T16:51:30;23.00;;;14.57;;
6376;SDS011;3221;48.858;10.128;2023-03-01T16:53:59;31.87;;;18.70;;
6376;SDS011;3221;48.858;10.128;2023-03-01T16:56:25;38.07;;;21.33;;
6376;SDS011;3221;48.858;10.128;2023-03-01T16:58:52;48.73;;;28.67;;
6376;SDS011;3221;48.858;10.128;2023-03-01T17:01:20;43.33;;;25.93;;
6376;SDS011;3221;48.858;10.128;2023-03-01T17:03:50;43.23;;;23.03;;
6376;SDS011;3221;48.858;10.128;2023-03-01T17:06:19;125.87;;;61.17;;
6376;SDS011;3221;48.858;10.128;2023-03-01T17:08:48;99.70;;;49.47;;